Time;durP1;ratioP1;P1;durP2;ratioP2;P2;SDS_P1;SDS_P2;PMS_P1;PMS_P2;Temp;Humidity;BMP_temperature;BMP_pressure;BME280_temperature;BME280_humidity;BME280_pressure;Samples;Min_cycle;Max_cycle;Signal;HPM_P1;HPM_P2
2023/12/26 00:00:05;;;;;;;;;1.00;1.00;;;;;22.89;47.25;101176.34;4919393;28;45456;-79
2023/12/26 00:02:30;;;;;;;;;1.00;0.33;;;;;22.81;47.59;101163.97;4918744;28;45304;-80
2023/12/26 00:04:56;;;;;;;;;1.00;1.00;;;;;23.00;47.57;101187.53;4919104;28;45521;-79
2023/12/26 00:07:23;;;;;;;;;2.33;1.00;;;;;22.88;47.45;101174.69;4919357;28;45430;-80
2023/12/26 00:09:48;;;;;;;;;3.00;3.00;;;;;22.94;47.45;101179.28;4918931;28;46376;-79
2023/12/26 00:12:14;;;;;;;;;2.67;1.00;;;;;22.78;47.34;101160.84;4933612;28;45352;-79
2023/12/26 00:14:39;;;;;;;;;1.00;1.00;;;;;22.97;47.40;101191.38;4919110;28;45315;-79
2023/12/26 00:17:04;;;;;;;;;1.00;1.00;;;;;22.80;47.66;101169.44;4918526;28;45317;-79
2023/12/26 00:19:30;;;;;;;;;2.00;2.00;;;;;22.65;47.63;101145.50;4920526;28;47216;-79
2023/12/26 00:21:55;;;;;;;;;1.00;1.00;;;;;22.70;47.17;101148.47;4938081;28;45304;-79
2023/12/26 00:24:21;;;;;;;;;2.00;2.00;;;;;22.91;47.58;101178.81;4950280;28;45402;-79
2023/12/26 00:26:46;;;;;;;;;1.00;1.00;;;;;22.69;47.38;101141.50;4956331;28;45390;-79
2023/12/26 00:29:11;;;;;;;;;2.33;2.33;;;;;22.76;47.36;101155.72;4957238;28;46230;-79
2023/12/26 00:31:41;;;;;;;;;1.67;0.00;;;;;22.87;47.31;101178.34;4955918;28;45412;-79
2023/12/26 00:34:06;;;;;;;;;1.00;1.00;;;;;22.92;47.22;101196.41;4957335;28;45378;-79
2023/12/26 00:36:32;;;;;;;;;1.00;1.00;;;;;22.80;47.42;101183.53;4957260;28;45442;-79
2023/12/26 00:38:57;;;;;;;;;1.33;1.33;;;;;22.68;47.34;101161.88;4957093;28;45572;-79
2023/12/26 00:41:23;;;;;;;;;1.33;1.00;;;;;22.90;47.88;101193.09;4955591;28;45378;-79
2023/12/26 00:43:51;;;;;;;;;1.00;1.00;;;;;22.89;47.15;101189.63;4957235;28;45330;-79
2023/12/26 00:46:16;;;;;;;;;2.00;0.00;;;;;22.88;47.67;101190.59;4956358;28;45410;-79
2023/12/26 00:48:42;;;;;;;;;1.67;1.67;;;;;22.35;46.99;101136.38;4956944;28;47491;-79
2023/12/26 00:51:07;;;;;;;;;2.00;2.00;;;;;22.83;47.72;101188.50;4957098;28;45372;-79
2023/12/26 00:53:32;;;;;;;;;1.00;1.00;;;;;22.80;47.21;101174.75;4957067;28;45362;-80
2023/12/26 00:55:58;;;;;;;;;1.67;0.00;;;;;22.87;47.40;101193.44;4957131;28;45388;-79
2023/12/26 00:58:24;;;;;;;;;1.00;1.00;;;;;22.87;47.39;101188.97;4956846;28;46035;-79
2023/12/26 01:00:49;;;;;;;;;1.00;1.00;;;;;22.77;47.27;101178.56;4956580;28;45310;-79
2023/12/26 01:03:15;;;;;;;;;2.00;2.00;;;;;22.80;47.70;101182.69;4956971;28;45662;-79
2023/12/26 01:05:41;;;;;;;;;1.33;1.33;;;;;22.85;47.58;101197.09;4956838;28;45500;-79
2023/12/26 01:08:08;;;;;;;;;1.00;1.00;;;;;22.76;47.45;101173.47;4956825;28;46390;-79
2023/12/26 01:10:34;;;;;;;;;2.67;2.00;;;;;22.81;47.40;101189.66;4956982;28;45330;-79
2023/12/26 01:12:59;;;;;;;;;1.67;1.33;;;;;22.85;47.61;101191.78;4957039;28;45303;-79
2023/12/26 01:15:25;;;;;;;;;1.00;1.00;;;;;22.82;47.43;101189.47;4956649;28;45522;-79
2023/12/26 01:17:50;;;;;;;;;1.00;1.00;;;;;22.85;47.01;101193.59;4956305;28;45984;-79
2023/12/26 01:20:15;;;;;;;;;1.00;1.00;;;;;22.80;47.16;101183.53;4947653;28;45236;-80
2023/12/26 01:22:41;;;;;;;;;2.67;1.00;;;;;22.81;47.56;101189.66;4937489;28;45534;-79
2023/12/26 01:25:06;;;;;;;;;2.00;1.00;;;;;22.84;47.22;101195.47;4955682;28;45271;-79
2023/12/26 01:27:33;;;;;;;;;1.33;1.33;;;;;22.84;47.65;101194.63;4956775;28;46041;-79
2023/12/26 01:30:01;;;;;;;;;1.00;1.00;;;;;22.70;47.17;101185.59;4956410;28;45373;-79
2023/12/26 01:32:27;;;;;;;;;1.00;1.00;;;;;22.74;47.53;101181.59;4956602;28;45361;-79
2023/12/26 01:34:52;;;;;;;;;2.00;1.00;;;;;22.74;47.15;101179.75;4956590;28;45568;-79
2023/12/26 01:37:18;;;;;;;;;2.33;1.33;;;;;22.83;47.19;101187.66;4956372;28;46363;-79
2023/12/26 01:39:43;;;;;;;;;2.67;1.00;;;;;22.82;47.17;101180.72;4956585;28;45279;-80
2023/12/26 01:42:08;;;;;;;;;3.00;1.67;;;;;22.82;47.21;101194.00;4956534;28;45404;-80
2023/12/26 01:44:34;;;;;;;;;1.00;1.00;;;;;22.46;47.60;101145.78;4956144;28;45429;-79
2023/12/26 01:47:00;;;;;;;;;2.00;2.00;;;;;22.33;47.06;101122.50;4956392;28;45960;-80
2023/12/26 01:49:26;;;;;;;;;1.33;1.33;;;;;22.63;47.35;101162.41;4956429;28;46054;-80
2023/12/26 01:51:52;;;;;;;;;1.33;1.00;;;;;22.79;46.91;101199.63;4956449;28;45675;-80
2023/12/26 01:54:18;;;;;;;;;1.00;1.00;;;;;22.82;47.16;101204.59;4956416;28;45565;-79
2023/12/26 01:56:45;;;;;;;;;1.33;1.33;;;;;22.41;47.47;101148.13;4955761;28;46195;-79
2023/12/26 01:59:11;;;;;;;;;2.33;2.33;;;;;22.50;47.71;101159.50;4957751;28;45460;-80
2023/12/26 02:01:36;;;;;;;;;0.33;0.33;;;;;22.65;47.50;101187.91;4959682;28;45389;-79
2023/12/26 02:04:02;;;;;;;;;1.33;1.00;;;;;22.62;47.11;101181.97;4959600;28;45413;-79
2023/12/26 02:06:31;;;;;;;;;2.00;2.00;;;;;22.73;47.16;101207.28;4959257;28;46008;-79
2023/12/26 02:08:57;;;;;;;;;3.00;1.00;;;;;22.78;47.40;101217.38;4959433;28;45370;-79
2023/12/26 02:11:22;;;;;;;;;2.00;1.00;;;;;22.79;47.71;101223.50;4959166;28;45314;-79
2023/12/26 02:13:48;;;;;;;;;1.00;1.00;;;;;22.72;47.21;101221.56;4959394;28;45334;-79
2023/12/26 02:16:18;;;;;;;;;1.00;1.00;;;;;22.52;47.20;101198.13;4959105;28;45340;-80
2023/12/26 02:18:43;;;;;;;;;1.33;1.33;;;;;22.67;47.34;101218.56;4959312;28;45359;-79
2023/12/26 02:21:08;;;;;;;;;0.33;0.33;;;;;22.73;46.97;101223.22;4943337;28;45459;-79
2023/12/26 02:23:36;;;;;;;;;2.00;1.00;;;;;22.70;46.97;101223.56;4946074;28;45336;-79
2023/12/26 02:26:03;;;;;;;;;0.00;0.00;;;;;22.74;47.51;101232.81;4958908;28;46536;-79
2023/12/26 02:28:30;;;;;;;;;0.67;0.00;;;;;22.63;47.47;101217.28;4959159;28;45466;-79
2023/12/26 02:30:58;;;;;;;;;0.33;0.33;;;;;22.65;47.28;101214.44;4959352;28;45327;-80
2023/12/26 02:33:24;;;;;;;;;2.67;2.67;;;;;22.64;46.88;101216.25;4959099;28;45449;-79
2023/12/26 02:35:49;;;;;;;;;1.33;1.33;;;;;22.43;47.44;101185.88;4958871;28;46536;-79
2023/12/26 02:38:15;;;;;;;;;0.67;0.00;;;;;22.63;47.31;101212.81;4958932;28;45376;-79
2023/12/26 02:40:40;;;;;;;;;1.33;1.33;;;;;22.66;47.20;101232.00;4958849;28;45367;-79
2023/12/26 02:43:06;;;;;;;;;1.00;1.00;;;;;22.78;47.53;101248.38;4958953;28;45269;-79
2023/12/26 02:45:31;;;;;;;;;1.00;1.00;;;;;22.57;47.15;101212.66;4958851;28;45385;-80
2023/12/26 02:47:56;;;;;;;;;1.00;1.00;;;;;22.72;47.51;101257.84;4958858;28;45288;-79
2023/12/26 02:50:22;;;;;;;;;2.00;1.00;;;;;22.79;47.59;101258.81;4958920;28;45522;-79
2023/12/26 02:52:47;;;;;;;;;2.00;2.00;;;;;22.77;47.49;101254.69;4973775;28;45394;-79
2023/12/26 02:55:13;;;;;;;;;2.33;2.00;;;;;22.67;47.20;101245.09;4958179;28;45401;-79
2023/12/26 02:57:38;;;;;;;;;1.00;1.00;;;;;22.77;46.96;101273.28;4958826;28;45397;-79
2023/12/26 03:00:05;;;;;;;;;2.00;1.00;;;;;22.64;47.14;101240.13;4958890;28;45387;-80
2023/12/26 03:02:31;;;;;;;;;0.33;0.00;;;;;22.77;47.55;101274.06;4958843;28;45604;-79
2023/12/26 03:04:56;;;;;;;;;1.67;1.00;;;;;22.58;47.56;101239.03;4958425;28;46573;-79
2023/12/26 03:07:21;;;;;;;;;3.00;3.00;;;;;22.67;47.50;101254.88;4958459;28;45286;-79
2023/12/26 03:09:47;;;;;;;;;0.33;0.33;;;;;22.62;47.34;101244.78;4956886;28;45309;-79
2023/12/26 03:12:12;;;;;;;;;0.00;0.00;;;;;22.62;47.40;101242.13;4957388;28;45379;-79
2023/12/26 03:14:37;;;;;;;;;2.00;1.00;;;;;22.74;47.29;101271.78;4958587;28;47216;-79
2023/12/26 03:17:03;;;;;;;;;2.00;1.00;;;;;22.54;47.42;101239.53;4958257;28;45402;-80
2023/12/26 03:19:28;;;;;;;;;1.00;1.00;;;;;22.73;47.57;101273.63;4955757;28;45438;-79
2023/12/26 03:21:54;;;;;;;;;0.00;0.00;;;;;22.73;47.20;101268.31;4939210;28;45291;-79
2023/12/26 03:24:19;;;;;;;;;0.33;0.00;;;;;22.73;47.33;101281.56;4950478;28;46337;-80
2023/12/26 03:26:45;;;;;;;;;1.67;0.00;;;;;22.66;47.53;101262.03;4958380;28;45453;-79
2023/12/26 03:29:10;;;;;;;;;0.67;0.67;;;;;22.65;46.86;101260.34;4958406;28;45711;-80
2023/12/26 03:31:42;;;;;;;;;1.67;1.00;;;;;22.65;47.51;101268.31;4958294;28;45493;-80
2023/12/26 03:34:07;;;;;;;;;0.00;0.00;;;;;22.66;47.03;101271.81;4958285;28;47212;-80
2023/12/26 03:36:32;;;;;;;;;1.00;1.00;;;;;22.71;47.47;101285.41;4958164;28;45515;-80
2023/12/26 03:38:58;;;;;;;;;2.33;0.33;;;;;22.62;46.96;101269.50;4957761;28;45500;-80
2023/12/26 03:41:23;;;;;;;;;0.00;0.00;;;;;22.76;47.07;101298.13;4958340;28;45221;-80
2023/12/26 03:43:48;;;;;;;;;1.00;1.00;;;;;22.70;47.18;101295.16;4957911;28;45990;-80
2023/12/26 03:46:14;;;;;;;;;0.67;0.67;;;;;22.74;47.17;101301.78;4958000;28;45401;-80
2023/12/26 03:48:39;;;;;;;;;0.33;0.33;;;;;22.75;47.30;101302.59;4958254;28;45372;-80
2023/12/26 03:51:04;;;;;;;;;1.00;1.00;;;;;22.62;47.36;101290.72;4958046;28;45244;-80
2023/12/26 03:53:30;;;;;;;;;1.67;1.00;;;;;22.54;46.88;101272.19;4957605;28;45421;-80
2023/12/26 03:55:55;;;;;;;;;4.00;2.00;;;;;22.65;46.97;101289.53;4957901;28;45303;-80
2023/12/26 03:58:20;;;;;;;;;0.00;0.00;;;;;22.52;47.33;101272.38;4957925;28;45340;-80
2023/12/26 04:00:46;;;;;;;;;2.00;1.00;;;;;22.73;46.80;101302.78;4958164;28;45280;-80
2023/12/26 04:03:12;;;;;;;;;2.67;1.67;;;;;22.62;47.32;101292.53;4957663;28;45855;-81
2023/12/26 04:05:37;;;;;;;;;0.00;0.00;;;;;22.55;47.12;101283.63;4957680;28;45363;-80
2023/12/26 04:08:04;;;;;;;;;1.00;1.00;;;;;22.68;47.46;101299.81;4957508;28;45563;-80
2023/12/26 04:10:29;;;;;;;;;0.67;0.67;;;;;22.67;47.35;101292.84;4957861;28;45315;-80
2023/12/26 04:12:54;;;;;;;;;1.00;1.00;;;;;22.66;47.23;101295.66;4957523;28;45399;-80
2023/12/26 04:15:20;;;;;;;;;1.67;1.00;;;;;22.71;47.28;101306.63;4957574;28;45361;-80
2023/12/26 04:17:45;;;;;;;;;4.33;2.00;;;;;22.65;46.97;101302.78;4957392;28;45558;-80
2023/12/26 04:20:10;;;;;;;;;1.00;1.00;;;;;22.57;46.87;101295.69;4949262;28;45576;-79
2023/12/26 04:22:36;;;;;;;;;1.67;0.33;;;;;22.70;47.29;101328.81;4937181;28;46897;-79
2023/12/26 04:25:01;;;;;;;;;1.00;1.00;;;;;22.70;47.28;101329.66;4955585;28;45540;-80
2023/12/26 04:27:26;;;;;;;;;1.67;1.00;;;;;22.60;47.03;101321.88;4957566;28;45341;-80
2023/12/26 04:29:53;;;;;;;;;0.00;0.00;;;;;22.58;46.95;101323.06;4957477;28;45333;-80
2023/12/26 04:32:18;;;;;;;;;3.33;0.33;;;;;22.63;47.22;101337.47;4957317;28;47300;-80
2023/12/26 04:34:44;;;;;;;;;0.33;0.33;;;;;22.68;46.76;101350.19;4957406;28;45304;-80
2023/12/26 04:37:10;;;;;;;;;1.00;1.00;;;;;22.70;47.43;101358.84;4956900;28;45454;-80
2023/12/26 04:39:35;;;;;;;;;2.00;0.67;;;;;22.31;46.98;101296.78;4957352;28;45286;-80
2023/12/26 04:42:00;;;;;;;;;0.33;0.33;;;;;22.51;46.71;101329.03;4957288;28;45930;-80
2023/12/26 04:44:26;;;;;;;;;1.00;1.00;;;;;22.71;47.27;101351.72;4957193;28;45417;-80
2023/12/26 04:46:51;;;;;;;;;1.00;1.00;;;;;22.58;47.13;101344.28;4957673;28;45417;-80
2023/12/26 04:49:17;;;;;;;;;0.67;0.67;;;;;22.45;47.17;101327.09;4957377;28;45575;-80
2023/12/26 04:51:42;;;;;;;;;1.00;1.00;;;;;22.71;46.95;101354.34;4956725;28;46649;-80
2023/12/26 04:54:07;;;;;;;;;0.00;0.00;;;;;22.36;47.19;101310.38;4957164;28;45424;-81
2023/12/26 04:56:33;;;;;;;;;2.00;0.67;;;;;22.47;46.83;101316.28;4957147;28;45457;-81
2023/12/26 04:58:58;;;;;;;;;1.00;1.00;;;;;22.71;47.24;101349.06;4957036;28;45382;-80
2023/12/26 05:01:23;;;;;;;;;2.00;0.00;;;;;22.50;46.85;101321.25;4957072;28;45403;-80
2023/12/26 05:03:49;;;;;;;;;1.33;1.00;;;;;22.70;47.05;101348.22;4957148;28;45370;-80
2023/12/26 05:06:18;;;;;;;;;1.00;0.00;;;;;22.43;47.25;101309.69;4956749;28;45540;-80
2023/12/26 05:08:44;;;;;;;;;1.00;1.00;;;;;22.69;46.63;101357.13;4957025;28;45288;-80
2023/12/26 05:11:20;;;;;;;;;2.00;0.00;;;;;22.68;46.90;101350.19;4956651;28;46969;-80
2023/12/26 05:13:45;;;;;;;;;0.00;0.00;;;;;22.36;47.09;101302.41;4956921;28;45342;-80
2023/12/26 05:16:11;;;;;;;;;0.67;0.67;;;;;22.66;46.69;101356.66;4956740;28;45429;-80
2023/12/26 05:18:36;;;;;;;;;0.67;0.67;;;;;22.70;47.26;101355.34;4956774;28;45343;-80
2023/12/26 05:21:02;;;;;;;;;0.00;0.00;;;;;22.58;46.78;101338.97;4939862;28;47189;-79
2023/12/26 05:23:27;;;;;;;;;0.00;0.00;;;;;22.70;47.27;101360.66;4942422;28;45409;-80
2023/12/26 05:25:52;;;;;;;;;1.00;1.00;;;;;22.69;46.68;101367.75;4956796;28;45868;-80
2023/12/26 05:28:18;;;;;;;;;0.00;0.00;;;;;22.51;47.33;101339.63;4956806;28;45361;-80
2023/12/26 05:30:43;;;;;;;;;0.00;0.00;;;;;22.68;46.72;101367.94;4956721;28;46414;-80
2023/12/26 05:33:08;;;;;;;;;1.33;0.00;;;;;22.68;47.14;101366.13;4956821;28;45246;-80
2023/12/26 05:35:34;;;;;;;;;2.00;0.00;;;;;22.68;47.43;101360.81;4960027;28;45302;-80
2023/12/26 05:38:00;;;;;;;;;2.00;1.00;;;;;22.59;47.36;101359.16;4960114;28;45429;-80
2023/12/26 05:40:27;;;;;;;;;0.00;0.00;;;;;22.57;47.34;101362.00;4959866;28;46844;-80
2023/12/26 05:42:52;;;;;;;;;0.00;0.00;;;;;22.67;47.00;101368.91;4959976;28;45271;-80
2023/12/26 05:45:18;;;;;;;;;1.00;1.00;;;;;22.43;47.07;101333.56;4959914;28;45361;-80
2023/12/26 05:47:43;;;;;;;;;0.00;0.00;;;;;22.63;46.97;101369.28;4960166;28;45354;-80
2023/12/26 05:50:09;;;;;;;;;0.00;0.00;;;;;22.59;46.95;101356.50;4959641;28;46264;-80
2023/12/26 05:52:34;;;;;;;;;0.00;0.00;;;;;22.41;47.23;101331.06;4959649;28;45220;-80
2023/12/26 05:55:00;;;;;;;;;0.00;0.00;;;;;22.43;46.78;101344.97;4959868;28;45682;-80
2023/12/26 05:57:25;;;;;;;;;2.00;0.00;;;;;22.57;47.46;101366.47;4959779;28;45433;-81
2023/12/26 05:59:51;;;;;;;;;0.00;0.00;;;;;22.46;46.83;101349.94;4959573;28;45395;-80
2023/12/26 06:02:16;;;;;;;;;1.00;1.00;;;;;22.60;46.63;101382.88;4959650;28;45307;-81
2023/12/26 06:04:41;;;;;;;;;0.00;0.00;;;;;22.60;46.79;101385.53;4959518;28;45284;-80
2023/12/26 06:07:07;;;;;;;;;0.33;0.33;;;;;22.52;46.68;101389.03;4959725;28;45334;-80
2023/12/26 06:09:33;;;;;;;;;1.00;0.00;;;;;22.51;47.13;101389.19;4959494;28;46602;-80
2023/12/26 06:11:58;;;;;;;;;0.00;0.00;;;;;22.46;46.87;101388.88;4959597;28;45378;-80
2023/12/26 06:14:24;;;;;;;;;1.00;1.00;;;;;22.61;46.87;101412.88;4959553;28;45287;-80
2023/12/26 06:16:50;;;;;;;;;0.00;0.00;;;;;22.69;47.06;101430.59;4959392;28;45423;-80
2023/12/26 06:19:15;;;;;;;;;0.00;0.00;;;;;22.43;46.93;101391.88;4957841;28;46289;-80
2023/12/26 06:21:41;;;;;;;;;1.67;1.00;;;;;22.68;46.80;101432.41;4939941;28;45362;-80
2023/12/26 06:24:06;;;;;;;;;0.00;0.00;;;;;22.64;46.74;101428.44;4950479;28;45345;-80
2023/12/26 06:26:32;;;;;;;;;0.67;0.67;;;;;22.69;47.10;101420.78;4959635;28;45251;-80
2023/12/26 06:28:57;;;;;;;;;0.67;0.67;;;;;22.48;46.95;101398.31;4959345;28;45244;-79
2023/12/26 06:31:22;;;;;;;;;1.00;0.00;;;;;22.59;46.81;101428.94;4957947;28;45439;-80
2023/12/26 06:33:48;;;;;;;;;0.00;0.00;;;;;22.68;46.93;101448.34;4959117;28;45515;-81
2023/12/26 06:36:13;;;;;;;;;1.00;1.00;;;;;22.68;47.20;101434.25;4959288;28;45294;-81
2023/12/26 06:38:38;;;;;;;;;1.00;0.00;;;;;22.66;46.68;101447.69;4959049;28;46361;-81
2023/12/26 06:41:04;;;;;;;;;1.00;1.00;;;;;22.53;46.99;101434.94;4959196;28;45315;-81
2023/12/26 06:43:30;;;;;;;;;2.67;0.00;;;;;22.49;47.10;101438.91;4959293;28;45371;-80
2023/12/26 06:45:56;;;;;;;;;1.00;1.00;;;;;22.65;47.38;101461.94;4958683;28;45446;-80
2023/12/26 06:48:21;;;;;;;;;1.00;0.00;;;;;22.65;46.93;101471.72;4958612;28;46484;-80
2023/12/26 06:50:46;;;;;;;;;1.00;1.00;;;;;22.54;46.73;101455.16;4959219;28;45298;-81
2023/12/26 06:53:12;;;;;;;;;1.00;1.00;;;;;22.62;47.37;101473.69;4959208;28;45470;-81
2023/12/26 06:55:37;;;;;;;;;0.00;0.00;;;;;22.61;47.03;101472.03;4959086;28;45596;-80
2023/12/26 06:58:03;;;;;;;;;0.67;0.33;;;;;22.63;46.97;101479.84;4958789;28;45825;-80
2023/12/26 07:00:29;;;;;;;;;0.00;0.00;;;;;22.64;46.78;101484.13;4958788;28;45450;-81
2023/12/26 07:02:55;;;;;;;;;0.00;0.00;;;;;22.64;46.61;101492.09;4958785;28;45358;-80
2023/12/26 07:05:21;;;;;;;;;0.00;0.00;;;;;22.66;46.99;101491.94;4958973;28;45505;-81
2023/12/26 07:07:46;;;;;;;;;0.00;0.00;;;;;22.66;46.61;101500.72;4958614;28;46379;-80
2023/12/26 07:10:11;;;;;;;;;0.00;0.00;;;;;22.51;46.96;101471.38;4959012;28;45493;-80
2023/12/26 07:12:37;;;;;;;;;0.00;0.00;;;;;22.60;46.92;101486.31;4958904;28;45314;-81
2023/12/26 07:15:04;;;;;;;;;0.00;0.00;;;;;22.67;46.67;101504.19;4959011;28;45406;-81
2023/12/26 07:17:30;;;;;;;;;0.33;0.33;;;;;22.66;46.95;101505.19;4958137;28;45394;-80
2023/12/26 07:19:55;;;;;;;;;2.67;1.00;;;;;22.62;46.62;101512.66;4952231;28;45314;-80
2023/12/26 07:22:20;;;;;;;;;0.00;0.00;;;;;22.68;46.14;101524.41;4939293;28;45336;-80
2023/12/26 07:24:46;;;;;;;;;0.00;0.00;;;;;22.67;46.58;101528.06;4954752;28;45208;-80
2023/12/26 07:27:11;;;;;;;;;0.00;0.00;;;;;22.62;46.86;101528.56;4958461;28;46285;-81
2023/12/26 07:29:37;;;;;;;;;0.00;0.00;;;;;22.67;46.73;101538.66;4958228;28;45299;-80
2023/12/26 07:32:02;;;;;;;;;2.00;2.00;;;;;22.67;46.29;101550.13;4958313;28;45411;-80
2023/12/26 07:34:27;;;;;;;;;0.00;0.00;;;;;22.67;46.50;101547.47;4957247;28;45362;-80
2023/12/26 07:36:53;;;;;;;;;0.00;0.00;;;;;22.68;46.71;101553.59;4958526;28;46230;-80
2023/12/26 07:39:19;;;;;;;;;0.00;0.00;;;;;22.67;47.03;101543.97;4958247;28;45396;-80
2023/12/26 07:41:44;;;;;;;;;0.00;0.00;;;;;22.67;46.68;101550.13;4958418;28;45295;-80
2023/12/26 07:44:09;;;;;;;;;0.00;0.00;;;;;22.48;47.18;101514.97;4958331;28;45517;-81
2023/12/26 07:46:35;;;;;;;;;0.00;0.00;;;;;22.51;47.11;101519.13;4957738;28;45481;-81
2023/12/26 07:49:00;;;;;;;;;1.00;1.00;;;;;22.22;47.12;101480.72;4958049;28;45430;-81
2023/12/26 07:51:25;;;;;;;;;0.00;0.00;;;;;22.64;46.52;101561.06;4958385;28;45340;-82
2023/12/26 07:53:52;;;;;;;;;1.00;1.00;;;;;22.33;47.08;101511.38;4958270;28;45462;-81
2023/12/26 07:56:18;;;;;;;;;0.00;0.00;;;;;22.59;46.42;101564.22;4956841;28;45454;-82
2023/12/26 07:58:43;;;;;;;;;0.00;0.00;;;;;22.61;46.35;101566.72;4957863;28;45575;-80
2023/12/26 08:01:08;;;;;;;;;1.00;0.00;;;;;22.54;46.52;101568.34;4957550;28;45504;-81
2023/12/26 08:03:34;;;;;;;;;2.33;1.00;;;;;22.66;46.43;101579.47;4957929;28;45271;-81
2023/12/26 08:05:59;;;;;;;;;0.00;0.00;;;;;22.40;46.86;101544.19;4957779;28;46043;-81
2023/12/26 08:08:24;;;;;;;;;1.67;1.00;;;;;22.61;47.02;101583.44;4957643;28;45464;-81
2023/12/26 08:10:50;;;;;;;;;0.00;0.00;;;;;22.50;46.47;101551.97;4957751;28;45405;-81
2023/12/26 08:13:15;;;;;;;;;1.33;0.00;;;;;22.33;47.11;101543.19;4957734;28;45457;-81
2023/12/26 08:15:40;;;;;;;;;0.00;0.00;;;;;22.46;46.55;101555.91;4957108;28;46171;-81
2023/12/26 08:18:06;;;;;;;;;0.00;0.00;;;;;22.63;47.07;101581.47;4957428;28;45413;-81
2023/12/26 08:20:37;;;;;;;;;0.67;0.67;;;;;22.58;46.94;101588.25;4946688;28;45371;-80
2023/12/26 08:23:02;;;;;;;;;1.00;1.00;;;;;22.49;46.62;101585.59;4939993;28;45192;-80
2023/12/26 08:25:28;;;;;;;;;1.00;1.00;;;;;22.26;47.09;101557.09;4957302;28;47369;-81
2023/12/26 08:27:54;;;;;;;;;2.33;1.00;;;;;22.46;46.90;101596.53;4957663;28;45327;-81
2023/12/26 08:30:20;;;;;;;;;0.00;0.00;;;;;22.63;46.68;101613.28;4957420;28;45342;-80
2023/12/26 08:32:45;;;;;;;;;0.00;0.00;;;;;22.65;46.77;101625.53;4957336;28;45399;-80
2023/12/26 08:35:11;;;;;;;;;0.00;0.00;;;;;22.59;46.58;101619.91;4957221;28;46566;-80
2023/12/26 08:37:36;;;;;;;;;0.00;0.00;;;;;22.43;46.64;101593.41;4957275;28;45282;-80
2023/12/26 08:40:03;;;;;;;;;0.00;0.00;;;;;22.52;46.62;101609.13;4957401;28;45324;-81
2023/12/26 08:42:28;;;;;;;;;0.00;0.00;;;;;22.41;46.30;101593.53;4957475;28;45357;-80
2023/12/26 08:44:53;;;;;;;;;1.00;1.00;;;;;22.45;46.61;101599.34;4956592;28;45439;-80
2023/12/26 08:47:19;;;;;;;;;0.67;0.67;;;;;22.66;46.18;101619.25;4957309;28;45378;-80
2023/12/26 08:49:44;;;;;;;;;0.00;0.00;;;;;22.66;46.73;101619.25;4957337;28;45339;-80
2023/12/26 08:52:09;;;;;;;;;0.67;0.33;;;;;22.60;46.42;101610.97;4957343;28;45455;-81
2023/12/26 08:54:35;;;;;;;;;0.00;0.00;;;;;22.67;46.68;101634.16;4957011;28;45354;-80
2023/12/26 08:57:00;;;;;;;;;1.00;0.00;;;;;22.61;46.42;101630.38;4957113;28;45333;-80
2023/12/26 08:59:26;;;;;;;;;0.67;0.67;;;;;22.52;46.64;101625.06;4956886;28;45242;-80
2023/12/26 09:01:52;;;;;;;;;0.00;0.00;;;;;22.61;47.02;101639.13;4957218;28;45295;-80
2023/12/26 09:04:17;;;;;;;;;0.00;0.00;;;;;22.59;46.38;101634.97;4956660;28;47137;-80
2023/12/26 09:06:42;;;;;;;;;0.00;0.00;;;;;22.44;46.59;101618.91;4957168;28;45377;-80
2023/12/26 09:09:08;;;;;;;;;1.33;1.00;;;;;22.66;46.72;101664.34;4956665;28;45458;-80
2023/12/26 09:11:34;;;;;;;;;0.33;0.33;;;;;22.46;46.79;101628.34;4956957;28;45452;-80
2023/12/26 09:13:59;;;;;;;;;1.00;0.00;;;;;22.65;46.37;101671.47;4956467;28;45393;-81
2023/12/26 09:16:24;;;;;;;;;0.00;0.00;;;;;22.59;46.96;101672.94;4956569;28;45417;-80
2023/12/26 09:18:50;;;;;;;;;0.00;0.00;;;;;22.60;46.54;101682.56;4956903;28;45326;-81
2023/12/26 09:21:16;;;;;;;;;2.00;0.00;;;;;22.44;46.93;101659.50;4939741;28;45283;-80
2023/12/26 09:23:44;;;;;;;;;2.67;1.00;;;;;22.58;46.55;101679.25;4944319;28;45964;-84
2023/12/26 09:26:09;;;;;;;;;0.33;0.33;;;;;22.52;46.85;101671.94;4956837;28;45362;-82
2023/12/26 09:28:37;;;;;;;;;1.00;0.33;;;;;22.60;46.84;101693.19;4956300;28;45580;-82
2023/12/26 09:31:03;;;;;;;;;0.50;0.50;;;;;22.59;46.81;101701.28;4956966;28;45368;-82
2023/12/26 09:33:28;;;;;;;;;0.33;0.33;;;;;22.62;47.12;101719.53;4956530;28;45486;-83
2023/12/26 09:35:53;;;;;;;;;1.00;1.00;;;;;22.53;46.58;101713.41;4957544;28;45326;-82
2023/12/26 09:38:19;;;;;;;;;1.00;1.00;;;;;22.53;46.43;101721.34;4957208;28;45343;-82
2023/12/26 09:40:46;;;;;;;;;0.00;0.00;;;;;22.63;46.82;101751.22;4956950;28;45291;-83
2023/12/26 09:43:12;;;;;;;;;0.00;0.00;;;;;22.45;46.73;101729.28;4956845;28;45413;-83
2023/12/26 09:45:37;;;;;;;;;0.00;0.00;;;;;22.66;46.08;101752.72;4956460;28;45365;-83
2023/12/26 09:48:03;;;;;;;;;0.67;0.67;;;;;22.66;46.58;101759.84;4956752;28;45358;-77
2023/12/26 09:50:28;;;;;;;;;1.00;0.00;;;;;22.58;46.12;101752.69;4956756;28;45505;-82
2023/12/26 09:53:00;;;;;;;;;0.00;0.00;;;;;22.68;46.73;101773.75;4956857;28;47195;-82
2023/12/26 09:55:29;;;;;;;;;2.00;1.33;;;;;22.69;46.49;101794.00;4956492;28;45327;-83
2023/12/26 09:57:58;;;;;;;;;2.00;0.00;;;;;22.70;46.20;101793.03;4957381;28;45361;-89
2023/12/26 10:00:27;;;;;;;;;0.00;0.00;;;;;22.66;46.61;101786.38;4941865;28;45406;-76
2023/12/26 10:02:53;;;;;;;;;1.00;1.00;;;;;22.63;46.67;101780.41;4937115;28;46361;-82
2023/12/26 10:05:19;;;;;;;;;0.00;0.00;;;;;22.51;46.36;101771.88;4937643;28;45349;-84
2023/12/26 10:07:45;;;;;;;;;1.00;0.00;;;;;22.68;46.29;101803.78;4937121;28;45286;-81
2023/12/26 10:10:20;;;;;;;;;2.00;0.67;;;;;22.70;46.85;101808.94;4926801;28;45527;-75
2023/12/26 10:12:49;;;;;;;;;0.00;0.00;;;;;22.72;46.54;101791.03;4927375;28;47292;-77
2023/12/26 10:15:14;;;;;;;;;1.00;1.00;;;;;22.57;46.51;101766.94;4926230;28;45260;-82
2023/12/26 10:17:43;;;;;;;;;1.33;0.00;;;;;22.74;46.87;101779.28;4932727;28;45467;-88
2023/12/26 10:20:15;;;;;;;;;1.33;1.00;;;;;22.71;46.76;101766.34;4929264;28;45549;-78
2023/12/26 10:22:42;;;;;;;;;1.00;0.00;;;;;22.48;46.56;101726.31;4930598;28;45420;-82
2023/12/26 10:25:08;;;;;;;;;1.00;1.00;;;;;22.68;46.96;101760.50;4928022;28;45501;-80
2023/12/26 10:27:34;;;;;;;;;0.00;0.00;;;;;22.73;46.48;101767.00;4945027;28;45426;-78
2023/12/26 10:29:59;;;;;;;;;0.33;0.33;;;;;22.69;46.37;101770.94;4929807;28;45363;-80
2023/12/26 10:32:25;;;;;;;;;0.00;0.00;;;;;22.53;46.76;101739.91;4928939;28;45423;-84
2023/12/26 10:34:53;;;;;;;;;1.00;1.00;;;;;22.78;46.82;101784.25;4930910;28;45455;-81
2023/12/26 10:37:22;;;;;;;;;1.67;0.33;;;;;22.72;46.42;101775.13;4929975;28;45392;-79
2023/12/26 10:39:48;;;;;;;;;1.00;1.00;;;;;22.79;46.97;101791.25;4928445;28;45506;-82
2023/12/26 10:42:18;;;;;;;;;0.00;0.00;;;;;22.63;47.09;101775.09;4930437;28;46193;-83
2023/12/26 10:44:57;;;;;;;;;1.00;1.00;;;;;22.79;47.54;101805.34;4930129;28;45394;-83
2023/12/26 10:47:23;;;;;;;;;0.00;0.00;;;;;22.63;46.95;101782.22;4925867;28;45460;-85
2023/12/26 10:49:55;;;;;;;;;0.00;0.00;;;;;22.79;47.41;101808.00;4920829;28;45641;-84
2023/12/26 10:52:25;;;;;;;;;1.67;0.33;;;;;22.63;46.90;101788.34;4920832;28;47289;-84
2023/12/26 10:54:52;;;;;;;;;0.00;0.00;;;;;22.82;47.40;101822.75;4920876;28;45387;-84
2023/12/26 10:57:18;;;;;;;;;4.00;1.00;;;;;22.59;46.94;101788.81;4921492;28;45303;-83
2023/12/26 13:51:49;;;;;;;;;0.67;0.67;;;;;22.77;46.87;101762.19;4917756;28;45457;-80
2023/12/26 13:54:51;;;;;;;;;2.33;1.00;;;;;22.78;47.36;101769.16;4918073;28;45393;-79
2023/12/26 13:57:54;;;;;;;;;0.00;0.00;;;;;22.77;47.34;101772.00;4920782;28;47409;-80
2023/12/26 14:00:57;;;;;;;;;1.00;1.00;;;;;22.77;47.35;101769.34;4920911;28;45439;-79
2023/12/26 14:04:00;;;;;;;;;1.67;0.67;;;;;22.75;47.45;101777.44;4920615;28;45467;-79
2023/12/26 14:07:04;;;;;;;;;0.67;0.67;;;;;22.78;46.84;101784.25;4920872;28;45547;-78
2023/12/26 14:10:06;;;;;;;;;1.00;1.00;;;;;22.78;46.97;101787.75;4920509;28;47249;-77
2023/12/26 14:13:09;;;;;;;;;2.00;1.00;;;;;22.80;47.33;101784.91;4920627;28;45358;-82